| time (UTC) | temp F | wind direction | speed MPH | gust MPH | rain 1hr in | rain 24hr in | rain mn in | humidity % | barometer mb |
| 20260902194523 | 76 | 236 | 1.0 | 3.0 | 0.00 | 0.05 | 0.05 | 88 | 1014.8 |
| 20260902194021 | 77 | 250 | 1.0 | 3.0 | 0.00 | 0.05 | 0.05 | 88 | 1014.9 |
| 20260902193521 | 76 | 201 | 1.0 | 4.0 | 0.00 | 0.05 | 0.05 | 87 | 1014.4 |
| 20260902193016 | 77 | 207 | 1.0 | 4.0 | 0.01 | 0.05 | 0.05 | 88 | 1014.5 |
| 20260902192518 | 77 | 190 | 1.0 | 3.0 | 0.02 | 0.05 | 0.05 | 87 | 1014.4 |
| 20260902192016 | 77 | 204 | 0.0 | 3.0 | 0.03 | 0.05 | 0.05 | 86 | 1014.5 |
| 20260902191517 | 77 | 188 | 0.0 | 3.0 | 0.03 | 0.05 | 0.05 | 86 | 1014.3 |
| 20260902191015 | 76 | 37 | 1.0 | 3.0 | 0.04 | 0.05 | 0.05 | 86 | 1014.1 |
| 20260902190515 | 76 | 105 | 0.0 | 2.0 | 0.05 | 0.05 | 0.05 | 87 | 1014.1 |
| 20260902190010 | 76 | 160 | 0.0 | 0.0 | 0.05 | 0.05 | 0.05 | 89 | 1014.2 |
| 20260902185011 | 76 | 105 | 0.0 | 1.0 | 0.05 | 0.05 | 0.05 | 88 | 1014.6 |
| 20260902184512 | 75 | 162 | 0.0 | 3.0 | 0.05 | 0.05 | 0.05 | 89 | 1014.8 |
| 20260902184009 | 75 | 162 | 1.0 | 3.0 | 0.05 | 0.05 | 0.05 | 89 | 1015.1 |
| 20260902183511 | 75 | 226 | 1.0 | 4.0 | 0.05 | 0.05 | 0.05 | 88 | 1015.5 |
| 20260902183005 | 75 | 208 | 0.0 | 4.0 | 0.04 | 0.04 | 0.04 | 87 | 1015.9 |
| 20260902182504 | 75 | 233 | 1.0 | 4.0 | 0.03 | 0.03 | 0.03 | 88 | 1016.3 |
| 20260902181504 | 76 | 70 | 4.0 | 17.0 | 0.02 | 0.02 | 0.02 | 86 | 1016.4 |
| 20260902181003 | 76 | 25 | 6.0 | 17.0 | 0.01 | 0.01 | 0.01 | 85 | 1016.5 |
| 20260902180503 | 77 | 122 | 8.0 | 16.0 | 0.00 | 0.00 | 0.00 | 81 | 1016.7 |
| 20260902180003 | 79 | 45 | 9.0 | 23.0 | 0.00 | 0.00 | 0.00 | 79 | 1016.8 |
| 20260902175002 | 82 | 192 | 12.0 | 27.0 | 0.00 | 0.00 | 0.00 | 69 | 1016.5 |
| 20260902174503 | 86 | 108 | 10.0 | 27.0 | 0.00 | 0.00 | 0.00 | 67 | 1016.3 |
| 20260902174001 | 89 | 120 | 6.0 | 16.0 | 0.00 | 0.00 | 0.00 | 66 | 1016.4 |
| 20260902173001 | 91 | 77 | 2.0 | 9.0 | 0.00 | 0.00 | 0.00 | 64 | 1015.9 |
| 20260902172456 | 91 | 64 | 2.0 | 9.0 | 0.00 | 0.00 | 0.00 | 64 | 1015.7 |
| 20260902171958 | 90 | 129 | 2.0 | 7.0 | 0.00 | 0.00 | 0.00 | 65 | 1015.4 |
| 20260902171453 | 91 | 117 | 2.0 | 7.0 | 0.00 | 0.00 | 0.00 | 65 | 1015.3 |
| 20260902170955 | 91 | 79 | 1.0 | 7.0 | 0.00 | 0.00 | 0.00 | 64 | 1015.3 |
| 20260902170454 | 91 | 113 | 1.0 | 4.0 | 0.00 | 0.00 | 0.00 | 64 | 1015.3 |
| 20260902165957 | 91 | 92 | 2.0 | 5.0 | 0.00 | 0.00 | 0.00 | 64 | 1015.1 |
| 20260902165451 | 91 | 86 | 2.0 | 5.0 | 0.00 | 0.00 | 0.00 | 64 | 1015.1 |
| 20260902164949 | 91 | 210 | 2.0 | 7.0 | 0.00 | 0.00 | 0.00 | 63 | 1015.0 |
| 20260902164450 | 91 | 227 | 2.0 | 7.0 | 0.00 | 0.00 | 0.00 | 64 | 1015.0 |
| 20260902163449 | 90 | 195 | 3.0 | 8.0 | 0.00 | 0.00 | 0.00 | 65 | 1015.0 |
| 20260902162949 | 90 | 15 | 3.0 | 6.0 | 0.00 | 0.00 | 0.00 | 65 | 1015.1 |
| 20260902162442 | 91 | 80 | 2.0 | 6.0 | 0.00 | 0.00 | 0.00 | 64 | 1015.0 |
| 20260902161943 | 92 | 70 | 2.0 | 5.0 | 0.00 | 0.00 | 0.00 | 63 | 1015.0 |
| 20260902161444 | 91 | 203 | 1.0 | 7.0 | 0.00 | 0.00 | 0.00 | 63 | 1015.0 |
| 20260902160943 | 90 | 102 | 1.0 | 7.0 | 0.00 | 0.00 | 0.00 | 65 | 1014.9 |
| 20260902160444 | 90 | 83 | 2.0 | 5.0 | 0.00 | 0.00 | 0.00 | 65 | 1014.9 |
| 20260902155438 | 90 | 204 | 1.0 | 6.0 | 0.00 | 0.00 | 0.00 | 65 | 1014.8 |
| 20260902154437 | 89 | 86 | 2.0 | 8.0 | 0.00 | 0.00 | 0.00 | 66 | 1014.8 |
| 20260902153937 | 89 | 199 | 2.0 | 8.0 | 0.00 | 0.00 | 0.00 | 66 | 1014.8 |
| 20260902153437 | 88 | 62 | 2.0 | 7.0 | 0.00 | 0.00 | 0.00 | 68 | 1014.8 |
| 20260902152939 | 88 | 96 | 2.0 | 7.0 | 0.00 | 0.00 | 0.00 | 66 | 1014.9 |
| 20260902152433 | 88 | 97 | 2.0 | 6.0 | 0.00 | 0.00 | 0.00 | 67 | 1014.9 |
| 20260902151932 | 88 | 22 | 2.0 | 6.0 | 0.00 | 0.00 | 0.00 | 67 | 1015.0 |
| 20260902151432 | 88 | 222 | 2.0 | 7.0 | 0.00 | 0.00 | 0.00 | 68 | 1014.9 |
| 20260902150933 | 87 | 110 | 3.0 | 7.0 | 0.00 | 0.00 | 0.00 | 68 | 1014.9 |
| 20260902145931 | 88 | 99 | 1.0 | 5.0 | 0.00 | 0.00 | 0.00 | 65 | 1014.9 |
| 20260902145424 | 88 | 173 | 1.0 | 4.0 | 0.00 | 0.00 | 0.00 | 67 | 1014.9 |
| 20260902144926 | 87 | 120 | 1.0 | 6.0 | 0.00 | 0.00 | 0.00 | 67 | 1014.9 |
| 20260902144426 | 86 | 138 | 2.0 | 6.0 | 0.00 | 0.00 | 0.00 | 68 | 1014.9 |
| 20260902142925 | 85 | 96 | 2.0 | 7.0 | 0.00 | 0.00 | 0.00 | 69 | 1015.0 |
| 20260902142418 | 85 | 143 | 3.0 | 7.0 | 0.00 | 0.00 | 0.00 | 69 | 1015.0 |
| 20260902141919 | 86 | 80 | 2.0 | 7.0 | 0.00 | 0.00 | 0.00 | 67 | 1015.0 |
| 20260902141420 | 85 | 160 | 1.0 | 5.0 | 0.00 | 0.00 | 0.00 | 69 | 1015.1 |
| 20260902140920 | 85 | 8 | 2.0 | 6.0 | 0.00 | 0.00 | 0.00 | 69 | 1015.1 |
| 20260902140419 | 85 | 96 | 2.0 | 6.0 | 0.00 | 0.00 | 0.00 | 69 | 1014.9 |
| 20260902135412 | 85 | 231 | 0.0 | 4.0 | 0.00 | 0.00 | 0.00 | 69 | 1015.0 |
| 20260902134910 | 84 | 199 | 1.0 | 6.0 | 0.00 | 0.00 | 0.00 | 71 | 1014.8 |
| 20260902134408 | 84 | 118 | 2.0 | 6.0 | 0.00 | 0.00 | 0.00 | 72 | 1014.9 |
| 20260902133907 | 84 | 89 | 1.0 | 5.0 | 0.00 | 0.00 | 0.00 | 71 | 1014.8 |
| 20260902133408 | 84 | 97 | 1.0 | 5.0 | 0.00 | 0.00 | 0.00 | 72 | 1015.0 |
| 20260902132901 | 83 | 73 | 1.0 | 5.0 | 0.00 | 0.00 | 0.00 | 72 | 1015.0 |
| 20260902132403 | 83 | 141 | 1.0 | 5.0 | 0.00 | 0.00 | 0.00 | 73 | 1015.0 |
| 20260902131859 | 82 | 146 | 2.0 | 6.0 | 0.00 | 0.00 | 0.00 | 74 | 1014.9 |
| 20260902131401 | 82 | 110 | 3.0 | 7.0 | 0.00 | 0.00 | 0.00 | 74 | 1015.0 |
| 20260902130401 | 81 | 20 | 1.0 | 5.0 | 0.00 | 0.00 | 0.00 | 77 | 1014.9 |
| 20260902125857 | 80 | 79 | 2.0 | 5.0 | 0.00 | 0.00 | 0.00 | 77 | 1014.8 |
| 20260902125355 | 80 | 55 | 1.0 | 5.0 | 0.00 | 0.00 | 0.00 | 76 | 1014.7 |
| 20260902124856 | 80 | 61 | 1.0 | 3.0 | 0.00 | 0.00 | 0.00 | 76 | 1014.8 |
| 20260902124357 | 80 | 34 | 1.0 | 2.0 | 0.00 | 0.00 | 0.00 | 78 | 1014.7 |
| 20260902123855 | 80 | 72 | 0.0 | 2.0 | 0.00 | 0.00 | 0.00 | 78 | 1014.6 |
| 20260902123355 | 80 | 89 | 0.0 | 1.0 | 0.00 | 0.00 | 0.00 | 79 | 1014.6 |
| 20260902122350 | 79 | 89 | 0.0 | 1.0 | 0.00 | 0.00 | 0.00 | 80 | 1014.6 |
| 20260902121848 | 79 | 80 | 0.0 | 0.0 | 0.00 | 0.00 | 0.00 | 80 | 1014.6 |
| 20260902121349 | 79 | 79 | 0.0 | 2.0 | 0.00 | 0.00 | 0.00 | 81 | 1014.6 |
| 20260902120849 | 78 | 80 | 0.0 | 2.0 | 0.00 | 0.00 | 0.00 | 81 | 1014.5 |
| 20260902120350 | 78 | 76 | 0.0 | 1.0 | 0.00 | 0.00 | 0.00 | 81 | 1014.5 |
| 20260902115842 | 78 | 73 | 0.0 | 1.0 | 0.00 | 0.00 | 0.00 | 81 | 1014.6 |
| 20260902115340 | 78 | 68 | 1.0 | 2.0 | 0.00 | 0.00 | 0.00 | 81 | 1014.5 |
| 20260902114840 | 78 | 61 | 1.0 | 4.0 | 0.00 | 0.00 | 0.00 | 81 | 1014.4 |
| 20260902114341 | 78 | 71 | 0.0 | 4.0 | 0.00 | 0.00 | 0.00 | 82 | 1014.2 |
| 20260902113840 | 78 | 76 | 1.0 | 3.0 | 0.00 | 0.00 | 0.00 | 82 | 1014.3 |
| 20260902113342 | 78 | 58 | 1.0 | 3.0 | 0.00 | 0.00 | 0.00 | 82 | 1014.3 |
| 20260902112337 | 78 | 89 | 1.0 | 3.0 | 0.00 | 0.00 | 0.00 | 82 | 1014.4 |
| 20260902111836 | 78 | 93 | 1.0 | 3.0 | 0.00 | 0.00 | 0.00 | 82 | 1014.5 |
| 20260902110337 | 77 | 103 | 0.0 | 1.0 | 0.00 | 0.00 | 0.00 | 83 | 1014.5 |
| 20260902105835 | 77 | 153 | 0.0 | 0.0 | 0.00 | 0.00 | 0.00 | 83 | 1014.5 |
| 20260902105327 | 77 | 152 | 0.0 | 0.0 | 0.00 | 0.00 | 0.00 | 83 | 1014.5 |
| 20260902104329 | 77 | 95 | 1.0 | 3.0 | 0.00 | 0.00 | 0.00 | 83 | 1014.4 |
| 20260902103828 | 77 | 95 | 1.0 | 3.0 | 0.00 | 0.00 | 0.00 | 83 | 1014.4 |
| 20260902103329 | 77 | 97 | 0.0 | 3.0 | 0.00 | 0.00 | 0.00 | 83 | 1014.4 |
| 20260902102826 | 77 | 81 | 0.0 | 4.0 | 0.00 | 0.00 | 0.00 | 83 | 1014.5 |
| 20260902101825 | 77 | 100 | 1.0 | 4.0 | 0.00 | 0.00 | 0.00 | 83 | 1014.4 |
| 20260902101324 | 78 | 93 | 2.0 | 4.0 | 0.00 | 0.00 | 0.00 | 83 | 1014.2 |
| 20260902100826 | 78 | 36 | 2.0 | 4.0 | 0.00 | 0.00 | 0.00 | 83 | 1014.1 |
| 20260902100323 | 78 | 86 | 1.0 | 4.0 | 0.00 | 0.00 | 0.00 | 83 | 1014.1 |
| 20260902095822 | 78 | 91 | 0.0 | 3.0 | 0.00 | 0.00 | 0.00 | 83 | 1014.1 |
| 20260902095323 | 78 | 78 | 0.0 | 1.0 | 0.00 | 0.00 | 0.00 | 83 | 1014.0 |
| 20260902094822 | 78 | 165 | 0.0 | 1.0 | 0.00 | 0.00 | 0.00 | 83 | 1014.0 |
| 20260902094320 | 78 | 90 | 0.0 | 2.0 | 0.00 | 0.00 | 0.00 | 83 | 1014.1 |
| 20260902093821 | 78 | 84 | 1.0 | 4.0 | 0.00 | 0.00 | 0.00 | 83 | 1014.1 |
| 20260902093322 | 78 | 84 | 1.0 | 5.0 | 0.00 | 0.00 | 0.00 | 83 | 1014.0 |
| 20260902092820 | 78 | 82 | 1.0 | 5.0 | 0.00 | 0.00 | 0.00 | 83 | 1014.1 |
| 20260902092321 | 78 | 96 | 1.0 | 4.0 | 0.00 | 0.00 | 0.00 | 83 | 1014.2 |
| 20260902091819 | 78 | 108 | 1.0 | 5.0 | 0.00 | 0.00 | 0.00 | 83 | 1014.2 |
| 20260902091317 | 78 | 86 | 1.0 | 5.0 | 0.00 | 0.00 | 0.00 | 82 | 1014.1 |
| 20260902090814 | 78 | 116 | 1.0 | 4.0 | 0.00 | 0.00 | 0.00 | 83 | 1014.1 |
| 20260902090313 | 78 | 92 | 1.0 | 4.0 | 0.00 | 0.00 | 0.00 | 83 | 1014.2 |
| 20260902085316 | 78 | 105 | 0.0 | 0.0 | 0.00 | 0.00 | 0.00 | 83 | 1014.1 |
| 20260902084815 | 78 | 102 | 0.0 | 1.0 | 0.00 | 0.00 | 0.00 | 83 | 1014.1 |
| 20260902084315 | 78 | 102 | 1.0 | 4.0 | 0.00 | 0.00 | 0.00 | 83 | 1014.1 |
| 20260902083815 | 78 | 101 | 1.0 | 4.0 | 0.00 | 0.00 | 0.00 | 83 | 1014.0 |
| 20260902083311 | 78 | 17 | 1.0 | 4.0 | 0.00 | 0.00 | 0.00 | 83 | 1014.1 |
| 20260902082811 | 78 | 91 | 1.0 | 5.0 | 0.00 | 0.00 | 0.00 | 83 | 1014.0 |
| 20260902082311 | 78 | 60 | 1.0 | 5.0 | 0.00 | 0.00 | 0.00 | 83 | 1014.0 |
| 20260902081811 | 79 | 27 | 1.0 | 4.0 | 0.00 | 0.00 | 0.00 | 83 | 1013.9 |
| 20260902081310 | 79 | 84 | 1.0 | 5.0 | 0.00 | 0.00 | 0.00 | 83 | 1013.8 |
| 20260902080811 | 79 | 73 | 2.0 | 5.0 | 0.00 | 0.00 | 0.00 | 82 | 1013.8 |
| 20260902080310 | 79 | 73 | 2.0 | 5.0 | 0.00 | 0.00 | 0.00 | 82 | 1013.8 |
| 20260902075812 | 79 | 89 | 1.0 | 5.0 | 0.00 | 0.00 | 0.00 | 82 | 1013.8 |
| 20260902075308 | 79 | 89 | 0.0 | 4.0 | 0.00 | 0.00 | 0.00 | 82 | 1013.7 |
| 20260902074808 | 80 | 85 | 0.0 | 2.0 | 0.00 | 0.00 | 0.00 | 82 | 1013.7 |
| 20260902074307 | 80 | 120 | 1.0 | 4.0 | 0.00 | 0.00 | 0.00 | 82 | 1013.7 |
| 20260902073806 | 80 | 117 | 1.0 | 4.0 | 0.00 | 0.00 | 0.00 | 82 | 1013.7 |
| 20260902073305 | 80 | 95 | 2.0 | 5.0 | 0.00 | 0.00 | 0.00 | 81 | 1013.7 |
| 20260902072807 | 80 | 102 | 2.0 | 5.0 | 0.00 | 0.00 | 0.00 | 81 | 1013.7 |
| 20260902072309 | 80 | 92 | 1.0 | 3.0 | 0.00 | 0.00 | 0.00 | 81 | 1013.8 |
| 20260902071804 | 80 | 98 | 1.0 | 3.0 | 0.00 | 0.00 | 0.00 | 81 | 1013.8 |
| 20260902071301 | 80 | 120 | 1.0 | 3.0 | 0.00 | 0.00 | 0.00 | 81 | 1013.7 |
| 20260902070800 | 80 | 99 | 1.0 | 3.0 | 0.00 | 0.00 | 0.00 | 80 | 1013.6 |
| 20260902070257 | 81 | 56 | 1.0 | 4.0 | 0.00 | 0.00 | 0.00 | 80 | 1013.5 |
| 20260902065756 | 81 | 84 | 1.0 | 4.0 | 0.00 | 0.00 | 0.00 | 80 | 1013.4 |
| 20260902065258 | 81 | 99 | 2.0 | 5.0 | 0.00 | 0.00 | 0.00 | 79 | 1013.4 |
| 20260902064757 | 81 | 92 | 3.0 | 5.0 | 0.00 | 0.00 | 0.00 | 79 | 1013.4 |
| 20260902063754 | 81 | 96 | 1.0 | 5.0 | 0.00 | 0.00 | 0.00 | 77 | 1013.4 |
| 20260902063253 | 82 | 94 | 1.0 | 5.0 | 0.00 | 0.00 | 0.00 | 77 | 1013.4 |
| 20260902062755 | 82 | 95 | 2.0 | 5.0 | 0.00 | 0.00 | 0.00 | 76 | 1013.4 |
| 20260902062253 | 82 | 80 | 3.0 | 10.0 | 0.00 | 0.00 | 0.00 | 76 | 1013.4 |
| 20260902061755 | 82 | 93 | 4.0 | 10.0 | 0.00 | 0.00 | 0.00 | 75 | 1013.3 |
| 20260902060751 | 83 | 92 | 5.0 | 13.0 | 0.00 | 0.00 | 0.00 | 73 | 1013.2 |
| 20260902060251 | 83 | 18 | 3.0 | 13.0 | 0.00 | 0.00 | 0.00 | 71 | 1013.2 |
| 20260902055248 | 84 | 58 | 0.0 | 2.0 | 0.00 | 0.00 | 0.00 | 70 | 1013.1 |
| 20260902053747 | 84 | 31 | 0.0 | 3.0 | 0.00 | 0.00 | 0.00 | 69 | 1013.0 |
| 20260902053243 | 84 | 20 | 1.0 | 3.0 | 0.00 | 0.00 | 0.00 | 68 | 1012.9 |
| 20260902052243 | 84 | 114 | 1.0 | 3.0 | 0.00 | 0.00 | 0.00 | 68 | 1013.1 |
| 20260902051743 | 84 | 60 | 1.0 | 3.0 | 0.00 | 0.00 | 0.00 | 67 | 1013.1 |
| 20260902051242 | 85 | 90 | 1.0 | 3.0 | 0.00 | 0.00 | 0.00 | 67 | 1013.2 |
| 20260902050739 | 85 | 15 | 2.0 | 5.0 | 0.00 | 0.00 | 0.00 | 67 | 1013.2 |
| 20260902050239 | 85 | 57 | 2.0 | 8.0 | 0.00 | 0.00 | 0.00 | 67 | 1013.3 |
| 20260902045738 | 85 | 65 | 3.0 | 8.0 | 0.00 | 0.00 | 0.00 | 66 | 1013.5 |
| 20260902045235 | 85 | 68 | 1.0 | 7.0 | 0.00 | 0.00 | 0.00 | 66 | 1013.4 |
| 20260902044737 | 85 | 40 | 1.0 | 7.0 | 0.00 | 0.00 | 0.00 | 65 | 1013.3 |
| 20260902044237 | 85 | 335 | 1.0 | 4.0 | 0.00 | 0.00 | 0.00 | 65 | 1013.0 |
| 20260902043226 | 86 | 17 | 2.0 | 4.0 | 0.00 | 0.00 | 0.00 | 64 | 1012.8 |
| 20260902042722 | 86 | 218 | 1.0 | 4.0 | 0.00 | 0.00 | 0.00 | 64 | 1012.7 |
| 20260902041714 | 86 | 335 | 2.0 | 6.0 | 0.00 | 0.00 | 0.00 | 64 | 1012.6 |
| 20260902041209 | 86 | 323 | 1.0 | 6.0 | 0.00 | 0.00 | 0.00 | 63 | 1012.4 |
| 20260902040704 | 86 | 308 | 0.0 | 3.0 | 0.00 | 0.00 | 0.00 | 64 | 1012.4 |
| 20260902040201 | 86 | 309 | 0.0 | 3.0 | 0.00 | 0.00 | 0.00 | 64 | 1012.5 |
| 20260902035654 | 86 | 318 | 0.0 | 2.0 | 0.00 | 0.00 | 0.00 | 64 | 1012.4 |
| 20260902035150 | 86 | 315 | 0.0 | 2.0 | 0.00 | 0.00 | 0.00 | 64 | 1012.4 |
| 20260902034653 | 87 | 335 | 0.0 | 1.0 | 0.00 | 0.00 | 0.00 | 64 | 1012.3 |
| 20260902034151 | 87 | 335 | 1.0 | 4.0 | 0.00 | 0.00 | 0.00 | 64 | 1012.2 |
| 20260902033651 | 87 | 255 | 1.0 | 4.0 | 0.00 | 0.00 | 0.00 | 64 | 1012.2 |
| 20260902033151 | 87 | 341 | 1.0 | 5.0 | 0.00 | 0.00 | 0.00 | 64 | 1012.2 |
| 20260902032149 | 87 | 313 | 2.0 | 7.0 | 0.00 | 0.00 | 0.00 | 64 | 1012.0 |
| 20260902031635 | 87 | 340 | 2.0 | 7.0 | 0.00 | 0.00 | 0.00 | 63 | 1011.9 |
| 20260902031135 | 87 | 319 | 2.0 | 8.0 | 0.00 | 0.00 | 0.00 | 63 | 1011.9 |
| 20260902030636 | 87 | 308 | 2.0 | 8.0 | 0.00 | 0.00 | 0.00 | 63 | 1011.8 |
| 20260902030134 | 87 | 287 | 2.0 | 6.0 | 0.00 | 0.00 | 0.00 | 63 | 1011.7 |
| 20260902024631 | 88 | 333 | 2.0 | 8.0 | 0.00 | 0.00 | 0.00 | 62 | 1011.6 |
| 20260902024131 | 88 | 316 | 2.0 | 6.0 | 0.00 | 0.00 | 0.00 | 62 | 1011.6 |
| 20260902023632 | 88 | 306 | 2.0 | 7.0 | 0.00 | 0.00 | 0.00 | 62 | 1011.7 |
| 20260902023130 | 88 | 266 | 2.0 | 9.0 | 0.00 | 0.00 | 0.00 | 62 | 1011.8 |
| 20260902022631 | 88 | 234 | 2.0 | 9.0 | 0.00 | 0.00 | 0.00 | 62 | 1012.0 |
| 20260902022131 | 89 | 57 | 2.0 | 7.0 | 0.00 | 0.00 | 0.00 | 62 | 1012.1 |
| 20260902021631 | 89 | 339 | 1.0 | 6.0 | 0.00 | 0.00 | 0.00 | 62 | 1012.1 |
| 20260902021130 | 89 | 328 | 1.0 | 6.0 | 0.00 | 0.00 | 0.00 | 62 | 1012.1 |
| 20260902020632 | 89 | 313 | 2.0 | 7.0 | 0.00 | 0.00 | 0.00 | 62 | 1012.0 |
| 20260902020133 | 89 | 342 | 1.0 | 7.0 | 0.00 | 0.00 | 0.00 | 62 | 1011.9 |
| 20260902015633 | 89 | 296 | 1.0 | 7.0 | 0.00 | 0.00 | 0.00 | 62 | 1011.7 |
| 20260902015127 | 89 | 4 | 1.0 | 7.0 | 0.00 | 0.00 | 0.00 | 62 | 1011.7 |
| 20260902014626 | 90 | 224 | 1.0 | 6.0 | 0.00 | 0.00 | 0.00 | 61 | 1011.6 |
| 20260902014128 | 90 | 307 | 1.0 | 7.0 | 0.00 | 0.00 | 0.00 | 62 | 1011.5 |
| 20260902013627 | 90 | 318 | 2.0 | 7.0 | 0.00 | 0.00 | 0.00 | 62 | 1011.5 |
| 20260902012628 | 90 | 332 | 0.0 | 2.0 | 0.00 | 0.00 | 0.00 | 64 | 1011.6 |
| 20260902011623 | 90 | 354 | 0.0 | 2.0 | 0.00 | 0.00 | 0.00 | 64 | 1011.5 |
| 20260902011126 | 90 | 288 | 0.0 | 3.0 | 0.00 | 0.00 | 0.00 | 64 | 1011.4 |
| 20260902010623 | 90 | 274 | 1.0 | 3.0 | 0.00 | 0.00 | 0.00 | 64 | 1011.3 |
| 20260902010123 | 90 | 295 | 1.0 | 6.0 | 0.00 | 0.00 | 0.00 | 63 | 1011.3 |
| 20260902005625 | 90 | 252 | 1.0 | 6.0 | 0.00 | 0.00 | 0.00 | 63 | 1011.2 |
| 20260902005118 | 90 | 311 | 1.0 | 4.0 | 0.00 | 0.00 | 0.00 | 63 | 1011.2 |
| 20260902004120 | 91 | 288 | 1.0 | 2.0 | 0.00 | 0.00 | 0.00 | 63 | 1010.9 |
| 20260902003619 | 91 | 285 | 1.0 | 4.0 | 0.00 | 0.00 | 0.00 | 62 | 1010.9 |
| 20260902003119 | 91 | 311 | 1.0 | 4.0 | 0.00 | 0.00 | 0.00 | 62 | 1010.6 |
| 20260902002619 | 91 | 304 | 2.0 | 6.0 | 0.00 | 0.00 | 0.00 | 62 | 1010.5 |
| 20260902002115 | 91 | 264 | 1.0 | 6.0 | 0.00 | 0.00 | 0.00 | 61 | 1010.3 |
| 20260902001615 | 91 | 211 | 2.0 | 6.0 | 0.00 | 0.00 | 0.00 | 60 | 1010.2 |
| 20260902001116 | 91 | 218 | 2.0 | 6.0 | 0.00 | 0.00 | 0.00 | 60 | 1010.2 |
| 20260902000614 | 92 | 356 | 1.0 | 5.0 | 0.00 | 0.00 | 0.00 | 59 | 1010.1 |
| 20260902000114 | 92 | 288 | 1.0 | 6.0 | 0.00 | 0.00 | 0.00 | 58 | 1010.1 |
| 20260901235616 | 92 | 194 | 2.0 | 6.0 | 0.00 | 0.00 | 0.00 | 58 | 1010.2 |
| 20260901234608 | 92 | 212 | 2.0 | 6.0 | 0.00 | 0.00 | 0.00 | 57 | 1010.1 |
| 20260901234108 | 92 | 274 | 3.0 | 7.0 | 0.00 | 0.00 | 0.00 | 57 | 1010.1 |
| 20260901233608 | 93 | 199 | 3.0 | 7.0 | 0.00 | 0.00 | 0.00 | 56 | 1010.1 |
| 20260901233111 | 93 | 206 | 2.0 | 6.0 | 0.00 | 0.00 | 0.00 | 56 | 1010.1 |
| 20260901232609 | 93 | 242 | 3.0 | 7.0 | 0.00 | 0.00 | 0.00 | 55 | 1010.2 |
| 20260901232108 | 93 | 283 | 3.0 | 9.0 | 0.00 | 0.00 | 0.00 | 55 | 1010.3 |
| 20260901231608 | 93 | 221 | 3.0 | 9.0 | 0.00 | 0.00 | 0.00 | 55 | 1010.4 |
| 20260901231107 | 94 | 238 | 3.0 | 10.0 | 0.00 | 0.00 | 0.00 | 54 | 1010.4 |
| 20260901230606 | 94 | 200 | 3.0 | 10.0 | 0.00 | 0.00 | 0.00 | 54 | 1010.4 |
| 20260901230106 | 94 | 227 | 2.0 | 6.0 | 0.00 | 0.00 | 0.00 | 54 | 1010.4 |
| 20260901225105 | 94 | 197 | 3.0 | 8.0 | 0.00 | 0.00 | 0.00 | 54 | 1010.4 |
| 20260901224606 | 94 | 219 | 2.0 | 8.0 | 0.00 | 0.00 | 0.00 | 54 | 1010.4 |
| 20260901222558 | 95 | 241 | 2.0 | 8.0 | 0.00 | 0.00 | 0.00 | 51 | 1010.5 |
| 20260901222058 | 95 | 135 | 1.0 | 7.0 | 0.00 | 0.00 | 0.00 | 50 | 1010.5 |
| 20260901220558 | 96 | 262 | 3.0 | 8.0 | 0.00 | 0.00 | 0.00 | 50 | 1010.5 |
| 20260901220050 | 96 | 227 | 3.0 | 8.0 | 0.00 | 0.00 | 0.00 | 50 | 1010.5 |
| 20260901215546 | 96 | 250 | 3.0 | 8.0 | 0.00 | 0.00 | 0.00 | 50 | 1010.5 |
| 20260901215047 | 96 | 262 | 2.0 | 8.0 | 0.00 | 0.00 | 0.00 | 50 | 1010.6 |
| 20260901214546 | 97 | 287 | 2.0 | 7.0 | 0.00 | 0.00 | 0.00 | 48 | 1010.6 |
| 20260901214047 | 97 | 142 | 2.0 | 7.0 | 0.00 | 0.00 | 0.00 | 48 | 1010.6 |
| 20260901213546 | 97 | 255 | 2.0 | 6.0 | 0.00 | 0.00 | 0.00 | 48 | 1010.6 |
| 20260901212546 | 97 | 294 | 2.0 | 8.0 | 0.00 | 0.00 | 0.00 | 48 | 1010.6 |
| 20260901212045 | 98 | 199 | 1.0 | 6.0 | 0.00 | 0.00 | 0.00 | 48 | 1010.6 |
| 20260901211543 | 97 | 323 | 2.0 | 8.0 | 0.00 | 0.00 | 0.00 | 49 | 1010.6 |
| 20260901211042 | 97 | 210 | 2.0 | 8.0 | 0.00 | 0.00 | 0.00 | 48 | 1010.7 |
| 20260901210542 | 97 | 199 | 2.0 | 7.0 | 0.00 | 0.00 | 0.00 | 49 | 1010.7 |
| 20260901205539 | 96 | 337 | 2.0 | 7.0 | 0.00 | 0.00 | 0.00 | 49 | 1010.8 |
| 20260901205039 | 96 | 262 | 3.0 | 7.0 | 0.00 | 0.00 | 0.00 | 50 | 1010.9 |
| 20260901204536 | 96 | 326 | 2.0 | 9.0 | 0.00 | 0.00 | 0.00 | 50 | 1010.9 |
| 20260901203530 | 95 | 245 | 4.0 | 10.0 | 0.00 | 0.00 | 0.00 | 51 | 1011.0 |
| 20260901203026 | 95 | 332 | 4.0 | 10.0 | 0.00 | 0.00 | 0.00 | 51 | 1011.1 |
| 20260901202528 | 96 | 235 | 3.0 | 10.0 | 0.00 | 0.00 | 0.00 | 51 | 1011.0 |
| 20260901202027 | 95 | 243 | 2.0 | 7.0 | 0.00 | 0.00 | 0.00 | 53 | 1011.0 |
| 20260901201528 | 95 | 197 | 3.0 | 7.0 | 0.00 | 0.00 | 0.00 | 53 | 1011.1 |
| 20260901201028 | 95 | 34 | 3.0 | 9.0 | 0.00 | 0.00 | 0.00 | 53 | 1011.2 |
| 20260901200527 | 96 | 331 | 3.0 | 9.0 | 0.00 | 0.00 | 0.00 | 52 | 1011.2 |
| 20260901200022 | 96 | 330 | 3.0 | 8.0 | 0.00 | 0.00 | 0.00 | 51 | 1011.3 |
| 20260901195020 | 97 | 316 | 3.0 | 10.0 | 0.00 | 0.00 | 0.00 | 49 | 1011.3 |